Time;durP1;ratioP1;P1;durP2;ratioP2;P2;SDS_P1;SDS_P2;PMS_P1;PMS_P2;Temp;Humidity;BMP_temperature;BMP_pressure;BME280_temperature;BME280_humidity;BME280_pressure;Samples;Min_cycle;Max_cycle;Signal;HPM_P1;HPM_P2
2021/07/05 00:00:13;;;;;;;3.00;2.70;;;;;;;19.81;85.82;100350.47;5016224;28;20451;-73
2021/07/05 00:02:40;;;;;;;5.77;3.47;;;;;;;19.78;85.97;100348.47;5014410;28;20452;-73
2021/07/05 00:05:08;;;;;;;3.73;2.90;;;;;;;19.74;86.33;100351.16;5014345;28;20444;-73
2021/07/05 00:07:34;;;;;;;3.70;3.20;;;;;;;19.68;85.68;100351.84;5014531;28;20460;-73
2021/07/05 00:10:01;;;;;;;4.30;2.60;;;;;;;19.62;86.43;100343.91;5014259;28;20451;-73
2021/07/05 00:12:28;;;;;;;3.67;3.03;;;;;;;19.58;86.92;100347.72;5032934;28;20454;-73
2021/07/05 00:14:54;;;;;;;3.83;2.80;;;;;;;19.50;86.81;100351.53;5033928;28;20823;-73
2021/07/05 00:17:22;;;;;;;4.27;2.77;;;;;;;19.42;87.16;100345.91;5033841;28;20439;-73
2021/07/05 00:19:48;;;;;;;4.40;2.93;;;;;;;19.38;88.82;100355.22;5033768;28;20803;-73
2021/07/05 00:22:15;;;;;;;3.93;2.87;;;;;;;19.35;88.83;100343.03;5033875;28;20447;-73
2021/07/05 00:24:41;;;;;;;3.70;2.60;;;;;;;19.32;88.97;100349.25;5040400;28;20447;-74
2021/07/05 00:27:08;;;;;;;3.80;2.63;;;;;;;19.29;88.67;100349.97;5033659;28;20440;-74
2021/07/05 00:29:34;;;;;;;4.73;3.10;;;;;;;19.25;88.78;100343.63;5033721;28;20439;-74
2021/07/05 00:32:01;;;;;;;3.80;2.83;;;;;;;19.21;88.94;100350.22;5033616;28;20447;-74
2021/07/05 00:34:28;;;;;;;4.60;3.47;;;;;;;19.18;89.88;100350.97;5033268;28;20937;-74
2021/07/05 00:36:55;;;;;;;3.47;2.80;;;;;;;19.13;89.90;100352.84;5033543;28;20447;-74
2021/07/05 00:39:21;;;;;;;3.27;2.50;;;;;;;19.09;89.76;100351.19;5033374;28;20483;-74
2021/07/05 00:41:48;;;;;;;4.23;3.50;;;;;;;19.03;89.88;100349.91;5030228;28;20447;-73
2021/07/05 00:44:14;;;;;;;4.00;2.73;;;;;;;19.01;90.85;100349.47;5024598;28;20455;-74
2021/07/05 00:46:40;;;;;;;4.07;3.07;;;;;;;19.00;90.98;100350.66;5013861;28;20899;-74
2021/07/05 00:49:07;;;;;;;5.80;3.30;;;;;;;18.98;91.22;100351.00;5027399;28;20459;-74
2021/07/05 00:51:35;;;;;;;3.53;2.40;;;;;;;18.97;91.07;100352.16;5033430;28;20443;-74
2021/07/05 00:54:02;;;;;;;5.53;3.20;;;;;;;18.90;90.83;100355.56;5032866;28;20447;-74
2021/07/05 00:56:29;;;;;;;2.90;2.40;;;;;;;18.88;90.87;100351.59;5033320;28;20447;-74
2021/07/05 00:58:56;;;;;;;4.43;3.53;;;;;;;18.85;90.66;100352.31;5033110;28;20864;-74
2021/07/05 01:01:23;;;;;;;3.00;2.63;;;;;;;18.85;90.81;100355.06;5018201;28;20444;-74
2021/07/05 01:03:49;;;;;;;5.83;3.77;;;;;;;18.79;91.85;100351.81;5013530;28;20467;-73
2021/07/05 01:06:16;;;;;;;4.40;3.57;;;;;;;18.77;92.37;100358.81;5013183;28;20969;-73
2021/07/05 01:08:44;;;;;;;5.87;4.00;;;;;;;18.73;92.27;100347.00;5013384;28;20460;-73
2021/07/05 01:11:10;;;;;;;4.17;3.23;;;;;;;18.77;92.40;100343.16;5013423;28;20450;-74
2021/07/05 01:13:37;;;;;;;4.60;3.17;;;;;;;18.80;92.50;100344.38;5013594;28;20570;-73
2021/07/05 01:16:04;;;;;;;3.67;3.10;;;;;;;18.76;93.02;100346.25;5013633;28;20452;-76
2021/07/05 01:18:30;;;;;;;4.43;3.80;;;;;;;18.76;92.51;100347.03;5013240;28;20492;-72
2021/07/05 01:21:00;;;;;;;3.73;3.00;;;;;;;18.77;92.36;100343.16;5013335;28;20440;-72
2021/07/05 01:23:27;;;;;;;5.43;3.80;;;;;;;18.76;91.94;100336.06;5013390;28;20444;-71
2021/07/05 01:25:53;;;;;;;5.00;3.13;;;;;;;18.74;91.95;100340.34;5016948;28;20451;-71
2021/07/05 01:28:20;;;;;;;4.67;2.90;;;;;;;18.69;92.50;100330.44;5029345;28;20984;-71
2021/07/05 01:30:47;;;;;;;5.43;3.90;;;;;;;18.72;92.48;100332.44;5029603;28;20471;-71
2021/07/05 01:33:15;;;;;;;3.67;2.97;;;;;;;18.73;92.27;100325.03;5013259;28;20458;-71
2021/07/05 01:35:42;;;;;;;5.07;3.73;;;;;;;18.73;91.94;100336.00;5016891;28;20478;-71
2021/07/05 01:38:16;;;;;;;4.60;3.67;;;;;;;18.73;92.17;100331.31;5024388;28;20827;-70
2021/07/05 01:40:43;;;;;;;6.13;3.70;;;;;;;18.70;92.48;100334.78;5032926;28;20443;-71
2021/07/05 01:43:10;;;;;;;5.90;4.40;;;;;;;18.74;92.60;100326.63;5013881;28;20479;-71
2021/07/05 01:45:37;;;;;;;6.03;3.60;;;;;;;18.75;92.56;100329.00;5013141;28;20876;-71
2021/07/05 01:48:04;;;;;;;4.77;3.70;;;;;;;18.75;92.35;100323.50;5012890;28;20480;-71
2021/07/05 01:50:31;;;;;;;8.10;4.30;;;;;;;18.79;92.28;100320.84;5013253;28;20444;-71
2021/07/05 01:52:58;;;;;;;5.13;3.37;;;;;;;18.78;92.09;100317.28;5013051;28;20451;-71
2021/07/05 01:55:29;;;;;;;4.60;3.40;;;;;;;18.72;92.37;100321.47;5032757;28;20454;-71
2021/07/05 01:57:57;;;;;;;5.67;4.20;;;;;;;18.70;92.04;100321.06;5032615;28;20466;-71
2021/07/05 02:00:24;;;;;;;4.70;3.70;;;;;;;18.68;92.58;100315.09;5032614;28;20450;-70
2021/07/05 02:02:52;;;;;;;3.67;3.17;;;;;;;18.63;92.54;100323.63;5032257;28;20940;-71
2021/07/05 02:05:19;;;;;;;5.93;3.43;;;;;;;18.59;92.30;100325.50;5033869;28;20438;-71
2021/07/05 02:07:47;;;;;;;5.53;3.60;;;;;;;18.55;92.41;100327.38;5035963;28;20972;-71
2021/07/05 02:10:15;;;;;;;6.87;3.80;;;;;;;18.51;92.85;100321.03;5036232;28;20435;-71
2021/07/05 02:12:44;;;;;;;4.97;3.70;;;;;;;18.49;92.88;100323.34;5036235;28;20439;-71
2021/07/05 02:15:13;;;;;;;4.53;3.33;;;;;;;18.46;93.01;100327.63;5036166;28;20442;-71
2021/07/05 02:17:40;;;;;;;4.90;3.90;;;;;;;18.37;93.73;100330.56;5036095;28;20466;-71
2021/07/05 02:20:09;;;;;;;4.73;3.23;;;;;;;18.34;93.74;100328.53;5028524;28;20491;-71
2021/07/05 02:22:36;;;;;;;4.07;3.00;;;;;;;18.32;93.71;100328.09;5016047;28;20933;-71
2021/07/05 02:25:04;;;;;;;4.70;3.50;;;;;;;18.32;93.72;100332.78;5026118;28;20443;-71
2021/07/05 02:27:30;;;;;;;5.20;3.67;;;;;;;18.19;94.55;100334.84;5035920;28;20459;-71
2021/07/05 02:29:58;;;;;;;4.57;3.37;;;;;;;18.22;94.22;100347.06;5035897;28;20446;-71
2021/07/05 02:32:24;;;;;;;5.10;3.47;;;;;;;18.15;94.44;100336.75;5035936;28;20450;-71
2021/07/05 02:34:51;;;;;;;4.53;3.37;;;;;;;18.13;94.77;100336.28;5035819;28;20450;-71
2021/07/05 02:37:17;;;;;;;9.17;3.73;;;;;;;18.10;94.92;100340.53;5025174;28;20444;-71
2021/07/05 02:39:44;;;;;;;5.90;3.67;;;;;;;18.08;94.96;100333.84;5015957;28;20484;-71
2021/07/05 02:42:10;;;;;;;5.33;4.00;;;;;;;18.07;94.93;100333.06;5015947;28;20460;-71
2021/07/05 02:44:37;;;;;;;4.37;3.47;;;;;;;18.02;95.60;100338.03;5015881;28;20454;-71
2021/07/05 02:47:05;;;;;;;4.37;2.83;;;;;;;18.03;95.41;100332.16;5015660;28;20825;-70
2021/07/05 02:49:31;;;;;;;3.87;3.37;;;;;;;18.00;95.84;100340.31;5015555;28;20791;-70
2021/07/05 02:51:58;;;;;;;4.40;3.27;;;;;;;17.96;95.64;100347.66;5015992;28;20444;-72
2021/07/05 02:54:24;;;;;;;3.20;2.90;;;;;;;17.92;95.82;100344.03;5015746;28;20443;-72
2021/07/05 02:56:50;;;;;;;5.23;3.67;;;;;;;17.94;95.45;100341.75;5015404;28;20440;-72
2021/07/05 02:59:17;;;;;;;4.50;2.90;;;;;;;17.92;95.72;100346.78;5015482;28;20487;-72
2021/07/05 03:01:45;;;;;;;4.70;3.00;;;;;;;17.89;95.41;100348.28;5015577;28;20451;-70
2021/07/05 03:04:13;;;;;;;4.17;3.57;;;;;;;17.83;96.36;100355.19;5018081;28;20455;-71
2021/07/05 03:06:39;;;;;;;4.87;3.00;;;;;;;17.83;96.49;100353.22;5024609;28;20480;-70
2021/07/05 03:09:06;;;;;;;6.33;3.87;;;;;;;17.79;96.66;100360.56;5015387;28;20452;-73
2021/07/05 03:11:32;;;;;;;4.93;3.40;;;;;;;17.80;96.63;100356.72;5032436;28;20495;-72
2021/07/05 03:13:58;;;;;;;6.60;3.33;;;;;;;17.81;96.36;100355.56;5035120;28;20450;-73
2021/07/05 03:16:25;;;;;;;7.80;4.30;;;;;;;17.85;96.67;100348.22;5041170;28;20449;-73
2021/07/05 03:18:51;;;;;;;4.60;2.97;;;;;;;17.88;96.68;100352.97;5034595;28;20983;-74
2021/07/05 03:21:19;;;;;;;4.03;3.00;;;;;;;17.81;97.02;100347.31;5034961;28;20450;-74
2021/07/05 03:23:45;;;;;;;6.03;4.10;;;;;;;17.83;97.10;100353.22;5017271;28;20440;-73
2021/07/05 03:26:12;;;;;;;6.70;3.77;;;;;;;17.82;97.13;100356.34;5015102;28;20492;-73
2021/07/05 03:28:38;;;;;;;7.43;4.50;;;;;;;17.89;96.76;100357.31;5015011;28;20464;-73
2021/07/05 03:31:05;;;;;;;5.20;3.97;;;;;;;17.93;96.42;100359.31;5015062;28;20451;-73
2021/07/05 03:33:31;;;;;;;6.30;4.03;;;;;;;17.94;96.32;100360.94;5015005;28;20451;-73
2021/07/05 03:35:58;;;;;;;5.43;4.30;;;;;;;17.95;96.84;100368.00;5014913;28;20470;-73
2021/07/05 03:38:26;;;;;;;10.43;3.90;;;;;;;17.97;97.00;100365.69;5015116;28;20464;-73
2021/07/05 03:40:52;;;;;;;6.03;3.93;;;;;;;17.97;96.90;100371.16;5014835;28;20448;-73
2021/07/05 03:43:19;;;;;;;4.90;4.33;;;;;;;17.99;96.79;100366.13;5014808;28;20444;-73
2021/07/05 03:45:46;;;;;;;6.30;4.20;;;;;;;18.05;96.96;100372.91;5014756;28;20471;-73
2021/07/05 03:48:13;;;;;;;4.93;3.50;;;;;;;18.05;97.41;100372.91;5014199;28;20855;-73
2021/07/05 03:50:40;;;;;;;4.70;3.80;;;;;;;18.09;97.61;100371.06;5014349;28;20805;-73
2021/07/05 03:53:07;;;;;;;5.20;3.60;;;;;;;18.14;97.69;100371.56;5014350;28;20504;-73
2021/07/05 03:55:37;;;;;;;5.47;4.43;;;;;;;18.20;98.12;100365.84;5014622;28;20455;-73
2021/07/05 03:58:04;;;;;;;5.00;3.50;;;;;;;18.24;98.04;100377.66;5014454;28;20468;-73
2021/07/05 04:00:32;;;;;;;7.33;4.70;;;;;;;18.29;98.11;100369.97;5033906;28;20494;-73
2021/07/05 04:02:59;;;;;;;5.23;4.13;;;;;;;18.31;98.29;100373.13;5034169;28;20435;-73
2021/07/05 04:05:26;;;;;;;7.10;4.57;;;;;;;18.34;98.46;100368.88;5034158;28;20439;-73
2021/07/05 04:07:53;;;;;;;5.93;3.93;;;;;;;18.42;98.19;100367.88;5033997;28;20474;-73
2021/07/05 04:10:20;;;;;;;7.20;4.57;;;;;;;18.51;97.96;100371.22;5034065;28;20534;-73
2021/07/05 04:12:48;;;;;;;6.70;3.63;;;;;;;18.58;96.85;100362.31;5033434;28;20466;-73
2021/07/05 04:15:15;;;;;;;6.37;4.20;;;;;;;18.65;96.11;100370.72;5033952;28;20450;-73
2021/07/05 04:17:41;;;;;;;7.00;4.60;;;;;;;18.72;96.18;100361.84;5033791;28;20455;-74
2021/07/05 04:20:11;;;;;;;5.97;3.93;;;;;;;18.75;95.21;100381.13;5033824;28;20490;-73
2021/07/05 04:22:37;;;;;;;5.87;4.17;;;;;;;18.78;93.56;100376.88;5033867;28;20439;-73
2021/07/05 04:25:06;;;;;;;4.43;3.87;;;;;;;18.81;91.92;100370.66;5033802;28;20440;-73
2021/07/05 04:27:32;;;;;;;8.97;4.43;;;;;;;18.82;90.55;100367.56;5033159;28;20470;-73
2021/07/05 04:30:00;;;;;;;6.90;5.10;;;;;;;18.81;91.68;100365.94;5033249;28;20976;-73
2021/07/05 04:32:27;;;;;;;5.03;4.27;;;;;;;18.85;92.99;100357.78;5033739;28;20518;-73
2021/07/05 04:34:54;;;;;;;4.90;3.70;;;;;;;18.93;93.69;100362.28;5033338;28;20932;-73
2021/07/05 04:37:21;;;;;;;7.03;4.37;;;;;;;18.95;94.23;100362.72;5026786;28;20470;-73
2021/07/05 04:39:47;;;;;;;7.47;3.97;;;;;;;18.96;93.40;100360.75;5013776;28;20488;-73
2021/07/05 04:42:14;;;;;;;6.80;4.53;;;;;;;18.99;93.36;100343.53;5013769;28;20452;-73
2021/07/05 04:44:41;;;;;;;4.67;3.50;;;;;;;19.08;94.11;100347.66;5013688;28;20494;-73
2021/07/05 04:47:10;;;;;;;8.43;5.80;;;;;;;19.13;93.01;100358.34;5013179;28;21042;-73
2021/07/05 04:49:37;;;;;;;6.33;4.30;;;;;;;19.15;92.38;100355.22;5033355;28;20862;-73
2021/07/05 04:52:04;;;;;;;4.27;3.40;;;;;;;19.21;91.65;100356.50;5033328;28;20483;-73
2021/07/05 04:54:30;;;;;;;6.20;4.23;;;;;;;19.25;92.19;100356.56;5033365;28;20446;-73
2021/07/05 04:56:57;;;;;;;5.53;3.90;;;;;;;19.34;92.21;100352.41;5033337;28;20438;-72
2021/07/05 04:59:24;;;;;;;6.20;4.63;;;;;;;19.38;91.45;100358.78;5022706;28;20488;-72
2021/07/05 05:01:51;;;;;;;7.40;4.00;;;;;;;19.38;90.56;100364.25;5013476;28;20838;-73
2021/07/05 05:04:19;;;;;;;7.37;4.83;;;;;;;19.42;90.22;100367.06;5017279;28;20444;-71
2021/07/05 05:06:45;;;;;;;6.57;4.40;;;;;;;19.47;90.49;100355.78;5027025;28;20438;-73
2021/07/05 05:09:12;;;;;;;6.60;3.90;;;;;;;19.51;89.08;100364.09;5028168;28;20460;-73
2021/07/05 05:11:39;;;;;;;5.03;3.63;;;;;;;19.56;88.74;100372.81;5019944;28;20451;-73
2021/07/05 05:14:05;;;;;;;4.67;3.17;;;;;;;19.63;89.46;100369.44;5013108;28;20439;-73
2021/07/05 05:16:32;;;;;;;5.13;3.90;;;;;;;19.71;89.84;100365.66;5013087;28;20941;-71
2021/07/05 05:18:58;;;;;;;6.10;4.93;;;;;;;19.78;89.17;100364.94;5012926;28;20833;-69
2021/07/05 05:21:26;;;;;;;5.30;4.17;;;;;;;19.80;88.14;100371.69;5013855;28;20455;-71
2021/07/05 05:23:53;;;;;;;5.37;4.03;;;;;;;19.81;88.24;100369.72;5033058;28;20474;-71
2021/07/05 05:26:19;;;;;;;7.23;4.33;;;;;;;19.85;88.65;100374.09;5032665;28;20443;-71
2021/07/05 05:28:47;;;;;;;5.53;4.20;;;;;;;19.90;89.05;100375.75;5029185;28;20484;-71
2021/07/05 05:31:14;;;;;;;5.60;3.87;;;;;;;19.93;89.23;100382.47;5021624;28;20524;-72
2021/07/05 05:33:41;;;;;;;5.23;3.50;;;;;;;19.93;88.89;100382.47;5017287;28;20512;-72
2021/07/05 05:36:07;;;;;;;5.37;4.20;;;;;;;19.97;88.28;100386.09;5015663;28;20443;-72
2021/07/05 05:38:35;;;;;;;4.90;3.63;;;;;;;19.99;89.50;100383.75;5017943;28;20462;-72
2021/07/05 05:41:02;;;;;;;6.20;4.70;;;;;;;19.98;88.76;100379.41;5036663;28;20483;-72
2021/07/05 05:43:28;;;;;;;6.20;3.97;;;;;;;20.01;87.65;100387.72;5036844;28;20446;-72
2021/07/05 05:46:00;;;;;;;5.23;3.57;;;;;;;20.07;87.84;100382.69;5036833;28;20453;-72
2021/07/05 05:48:27;;;;;;;5.97;3.47;;;;;;;20.17;87.88;100382.03;5036525;28;20491;-72
2021/07/05 05:50:53;;;;;;;5.40;3.60;;;;;;;20.28;87.25;100385.75;5036364;28;20446;-72
2021/07/05 05:53:20;;;;;;;7.07;4.33;;;;;;;20.43;87.35;100394.97;5037912;28;20442;-72
2021/07/05 05:55:48;;;;;;;4.87;3.77;;;;;;;20.47;86.69;100386.78;5036603;28;20442;-72
2021/07/05 05:58:15;;;;;;;5.17;3.77;;;;;;;20.55;86.31;100385.75;5036517;28;20486;-72
2021/07/05 06:00:41;;;;;;;8.03;4.73;;;;;;;20.55;86.56;100386.53;5024110;28;20890;-72
2021/07/05 06:03:08;;;;;;;4.67;4.07;;;;;;;20.66;85.63;100392.94;5016724;28;20440;-72
2021/07/05 06:05:34;;;;;;;5.53;3.90;;;;;;;20.76;85.79;100396.22;5016693;28;20447;-72
2021/07/05 06:08:01;;;;;;;3.53;3.17;;;;;;;20.81;85.16;100393.16;5016556;28;20459;-72
2021/07/05 06:10:27;;;;;;;4.40;3.47;;;;;;;20.85;85.31;100383.75;5016830;28;20440;-72
2021/07/05 06:12:56;;;;;;;6.27;4.40;;;;;;;21.02;85.34;100393.38;5016455;28;20448;-72
2021/07/05 06:15:23;;;;;;;4.97;3.63;;;;;;;21.14;85.39;100397.84;5016636;28;20444;-72
2021/07/05 06:17:51;;;;;;;4.83;3.50;;;;;;;21.15;83.93;100407.69;5016172;28;20468;-73
2021/07/05 06:20:19;;;;;;;4.83;3.57;;;;;;;21.14;83.62;100400.59;5023798;28;20509;-72
2021/07/05 06:22:49;;;;;;;5.20;4.40;;;;;;;21.17;84.04;100405.34;5036097;28;20470;-73
2021/07/05 06:25:15;;;;;;;8.00;4.57;;;;;;;21.24;83.21;100413.69;5036040;28;20442;-73
2021/07/05 06:27:42;;;;;;;5.43;3.70;;;;;;;21.27;83.21;100412.16;5036260;28;20458;-73
2021/07/05 06:30:11;;;;;;;4.07;3.50;;;;;;;21.33;83.60;100416.94;5035668;28;20446;-72
2021/07/05 06:32:37;;;;;;;4.60;3.80;;;;;;;21.34;83.22;100418.56;5035962;28;20443;-73
2021/07/05 06:35:05;;;;;;;5.43;4.47;;;;;;;21.38;82.80;100416.63;5035858;28;20636;-72
2021/07/05 06:37:31;;;;;;;6.00;3.80;;;;;;;21.37;82.01;100422.50;5035771;28;20467;-73
2021/07/05 06:39:58;;;;;;;6.13;4.07;;;;;;;21.20;82.73;100423.09;5035362;28;20999;-72
2021/07/05 06:42:24;;;;;;;4.17;3.50;;;;;;;21.27;83.67;100434.19;5035729;28;20451;-72
2021/07/05 06:44:50;;;;;;;4.83;3.57;;;;;;;21.30;83.19;100431.47;5035645;28;20824;-73
2021/07/05 06:47:18;;;;;;;3.30;2.97;;;;;;;21.26;83.53;100422.38;5035151;28;20947;-73
2021/07/05 06:49:45;;;;;;;5.23;3.43;;;;;;;21.23;83.49;100425.88;5035678;28;20432;-73
2021/07/05 06:52:12;;;;;;;5.57;3.57;;;;;;;21.27;84.47;100431.44;5034480;28;20959;-73
2021/07/05 06:54:39;;;;;;;4.57;3.20;;;;;;;21.23;83.45;100434.16;5035547;28;20446;-73
2021/07/05 06:57:06;;;;;;;4.90;3.03;;;;;;;21.31;82.98;100433.09;5035402;28;20451;-73
2021/07/05 06:59:32;;;;;;;5.30;3.67;;;;;;;21.40;84.07;100444.59;5035291;28;20454;-72
2021/07/05 07:01:59;;;;;;;4.03;3.27;;;;;;;21.40;83.43;100439.09;5035039;28;21115;-73
2021/07/05 07:04:26;;;;;;;4.63;3.73;;;;;;;21.42;82.62;100442.25;5035263;28;20470;-73
2021/07/05 07:06:53;;;;;;;5.10;3.10;;;;;;;21.51;83.06;100443.91;5041592;28;20944;-73
2021/07/05 07:09:19;;;;;;;5.00;3.20;;;;;;;21.53;83.15;100447.09;5035148;28;20466;-73
2021/07/05 07:11:46;;;;;;;3.23;2.60;;;;;;;21.60;82.82;100447.97;5035195;28;20435;-73
2021/07/05 07:14:13;;;;;;;3.53;3.10;;;;;;;21.54;82.27;100448.66;5034850;28;20843;-73
2021/07/05 07:16:42;;;;;;;5.03;2.83;;;;;;;21.61;81.94;100448.75;5035136;28;20451;-73
2021/07/05 07:19:17;;;;;;;5.30;2.53;;;;;;;21.45;81.48;100445.44;5034858;28;20463;-73
2021/07/05 07:21:47;;;;;;;3.77;2.50;;;;;;;21.27;81.92;100451.50;5034924;28;20510;-73
2021/07/05 07:24:13;;;;;;;3.67;2.50;;;;;;;21.22;82.16;100451.84;5034921;28;20439;-73
2021/07/05 07:26:40;;;;;;;2.73;2.03;;;;;;;21.03;83.54;100452.00;5034941;28;20876;-72
2021/07/05 07:29:06;;;;;;;3.43;2.30;;;;;;;20.91;85.38;100447.56;5034760;28;20472;-73
2021/07/05 07:31:33;;;;;;;6.30;2.60;;;;;;;20.69;86.48;100443.72;5034798;28;20452;-73
2021/07/05 07:34:00;;;;;;;3.73;2.53;;;;;;;20.53;88.43;100448.59;5034735;28;20451;-73
2021/07/05 07:36:26;;;;;;;2.23;2.03;;;;;;;20.26;90.76;100450.53;5034328;28;20797;-73
2021/07/05 07:38:59;;;;;;;4.67;2.43;;;;;;;20.12;92.42;100442.88;5034838;28;20470;-72
2021/07/05 07:41:29;;;;;;;3.73;2.33;;;;;;;20.01;94.37;100461.13;5034623;28;20475;-73
2021/07/05 07:43:56;;;;;;;2.30;1.53;;;;;;;19.80;95.81;100458.84;5034603;28;20426;-72
2021/07/05 07:46:22;;;;;;;2.93;2.20;;;;;;;19.71;97.98;100456.34;5034557;28;20444;-73
2021/07/05 07:48:49;;;;;;;2.03;1.83;;;;;;;19.73;99.21;100459.50;5034239;28;20603;-72
2021/07/05 07:51:15;;;;;;;2.30;2.10;;;;;;;19.77;100.00;100459.56;5034401;28;20450;-72
2021/07/05 07:53:42;;;;;;;3.27;1.90;;;;;;;19.67;100.00;100466.47;5034380;28;20458;-72
2021/07/05 07:56:10;;;;;;;6.10;3.07;;;;;;;19.61;100.00;100473.41;5034273;28;20450;-73
2021/07/05 07:58:36;;;;;;;2.30;1.87;;;;;;;19.59;100.00;100464.72;5032879;28;20895;-72
2021/07/05 08:01:03;;;;;;;3.30;1.90;;;;;;;19.49;100.00;100455.13;5020029;28;20483;-72
2021/07/05 08:03:29;;;;;;;2.23;1.57;;;;;;;19.26;100.00;100463.34;5016010;28;20946;-73
2021/07/05 08:05:56;;;;;;;3.43;2.53;;;;;;;19.16;100.00;100452.91;5020599;28;20447;-72
2021/07/05 08:08:23;;;;;;;3.23;1.97;;;;;;;19.08;100.00;100459.41;5018111;28;21025;-72
2021/07/05 08:10:49;;;;;;;3.77;2.00;;;;;;;19.06;100.00;100456.25;5028425;28;20446;-72
2021/07/05 08:13:17;;;;;;;3.17;1.50;;;;;;;18.96;100.00;100462.31;5024204;28;20451;-73
2021/07/05 08:15:43;;;;;;;2.87;1.87;;;;;;;18.85;100.00;100459.34;5020007;28;20440;-73
2021/07/05 08:18:10;;;;;;;1.83;1.40;;;;;;;18.82;100.00;100458.13;5014589;28;20992;-73
2021/07/05 08:20:36;;;;;;;2.70;1.80;;;;;;;18.90;100.00;100468.09;5033854;28;20498;-73
2021/07/05 08:23:03;;;;;;;3.70;2.30;;;;;;;18.87;100.00;100466.06;5033842;28;20450;-73
2021/07/05 08:25:30;;;;;;;2.70;2.07;;;;;;;18.90;100.00;100461.81;5033783;28;20891;-73
2021/07/05 08:27:58;;;;;;;2.97;2.27;;;;;;;18.99;100.00;100467.91;5033701;28;20486;-72
2021/07/05 08:30:27;;;;;;;2.90;1.93;;;;;;;19.03;100.00;100473.44;5032179;28;20439;-73
2021/07/05 08:32:54;;;;;;;2.57;1.50;;;;;;;19.11;100.00;100470.47;5013826;28;20486;-73
2021/07/05 08:35:22;;;;;;;3.60;2.73;;;;;;;19.22;100.00;100467.16;5013493;28;20446;-73
2021/07/05 08:37:49;;;;;;;3.73;2.57;;;;;;;19.26;100.00;100468.84;5013663;28;20475;-73
2021/07/05 08:40:16;;;;;;;2.73;1.87;;;;;;;19.31;100.00;100470.50;5013369;28;20937;-74
2021/07/05 08:42:44;;;;;;;3.63;2.23;;;;;;;19.35;100.00;100463.13;5013958;28;20447;-73
2021/07/05 08:45:11;;;;;;;4.93;2.67;;;;;;;19.31;100.00;100460.28;5016470;28;20444;-72
2021/07/05 08:47:42;;;;;;;2.10;1.80;;;;;;;19.26;100.00;100462.53;5013421;28;20570;-73
2021/07/05 08:50:11;;;;;;;4.00;2.00;;;;;;;19.29;100.00;100459.84;5015058;28;20510;-73
2021/07/05 08:52:42;;;;;;;5.90;2.43;;;;;;;19.42;100.00;100465.97;5031039;28;20458;-73
2021/07/05 08:55:10;;;;;;;3.10;2.20;;;;;;;19.51;100.00;100458.28;5033394;28;20434;-73
2021/07/05 08:57:38;;;;;;;2.93;1.50;;;;;;;19.52;100.00;100459.91;5033311;28;20530;-73
2021/07/05 09:00:06;;;;;;;3.57;2.90;;;;;;;19.56;100.00;100462.69;5033329;28;20555;-73
2021/07/05 09:02:33;;;;;;;2.63;1.93;;;;;;;19.55;100.00;100461.13;5039548;28;20920;-73
2021/07/05 09:05:01;;;;;;;3.87;2.33;;;;;;;19.53;100.00;100464.22;5033140;28;20451;-73
2021/07/05 09:07:27;;;;;;;3.30;2.10;;;;;;;19.60;100.00;100460.81;5033234;28;20510;-73
2021/07/05 09:09:59;;;;;;;4.33;2.93;;;;;;;19.49;100.00;100466.13;5032907;28;20450;-74
2021/07/05 09:12:25;;;;;;;5.87;2.43;;;;;;;19.45;100.00;100469.97;5030764;28;20936;-73
2021/07/05 09:15:07;;;;;;;3.70;2.40;;;;;;;19.50;100.00;100469.66;5019939;28;20444;-71
2021/07/05 09:17:34;;;;;;;4.20;2.97;;;;;;;19.55;100.00;100466.59;5025237;28;20502;-71
2021/07/05 09:20:18;;;;;;;3.20;2.57;;;;;;;19.64;100.00;100467.19;5017338;28;20467;-71
2021/07/05 09:23:08;;;;;;;3.30;2.50;;;;;;;19.69;100.00;100474.34;5013284;28;20478;-71
2021/07/05 09:25:38;;;;;;;2.97;2.60;;;;;;;19.72;100.00;100473.63;5013393;28;20431;-71
2021/07/05 09:28:05;;;;;;;8.57;3.63;;;;;;;19.69;100.00;100474.34;5012945;28;20973;-71
2021/07/05 09:30:37;;;;;;;5.50;2.10;;;;;;;19.73;100.00;100476.00;5012910;28;20945;-71
2021/07/05 09:33:19;;;;;;;4.03;2.90;;;;;;;19.77;100.00;100481.56;5013298;28;20432;-71
2021/07/05 09:35:48;;;;;;;3.17;2.40;;;;;;;19.81;100.00;100468.69;5013186;28;20444;-71
2021/07/05 09:38:29;;;;;;;2.80;2.47;;;;;;;19.83;100.00;100480.91;5013533;28;20506;-71
2021/07/05 09:40:55;;;;;;;4.70;3.30;;;;;;;19.77;100.00;100482.34;5012849;28;20973;-71
2021/07/05 09:43:23;;;;;;;4.03;2.97;;;;;;;19.86;100.00;100480.16;5013164;28;20447;-71
2021/07/05 09:45:50;;;;;;;5.17;3.40;;;;;;;19.83;100.00;100480.91;5013105;28;20440;-70
2021/07/05 09:48:18;;;;;;;3.40;2.40;;;;;;;19.78;100.00;100492.19;5012797;28;20475;-70
2021/07/05 09:50:47;;;;;;;5.17;3.20;;;;;;;19.80;100.00;100487.13;5013014;28;20441;-70
2021/07/05 09:53:35;;;;;;;5.47;3.33;;;;;;;19.87;100.00;100483.69;5013045;28;20455;-70
2021/07/05 09:56:21;;;;;;;5.00;2.70;;;;;;;19.80;100.00;100484.38;5012985;28;20459;-69
2021/07/05 09:58:49;;;;;;;2.23;1.63;;;;;;;19.77;100.00;100476.06;5012947;28;20464;-70
2021/07/05 10:01:40;;;;;;;4.43;2.53;;;;;;;19.81;100.00;100472.22;5012660;28;20490;-70
2021/07/05 10:04:08;;;;;;;4.17;2.27;;;;;;;19.94;100.00;100472.03;5012849;28;20463;-70
2021/07/05 10:06:46;;;;;;;4.07;2.87;;;;;;;20.05;100.00;100473.00;5012912;28;20941;-70
2021/07/05 10:09:13;;;;;;;3.00;2.43;;;;;;;20.16;100.00;100477.50;5012848;28;20467;-70
2021/07/05 10:11:40;;;;;;;2.77;2.10;;;;;;;20.23;100.00;100476.84;5012949;28;20440;-70
2021/07/05 10:14:13;;;;;;;3.83;2.63;;;;;;;20.23;100.00;100467.78;5012613;28;20964;-70
2021/07/05 10:16:40;;;;;;;3.10;2.13;;;;;;;20.24;100.00;100475.69;5012944;28;20448;-71
2021/07/05 10:19:07;;;;;;;2.83;1.87;;;;;;;20.17;100.00;100475.56;5012812;28;20497;-71
2021/07/05 10:21:35;;;;;;;2.40;2.10;;;;;;;20.10;100.00;100472.72;5013016;28;20490;-71
2021/07/05 10:24:05;;;;;;;3.50;2.40;;;;;;;20.25;100.00;100468.22;5012774;28;20506;-71
2021/07/05 10:26:32;;;;;;;2.93;2.10;;;;;;;20.46;100.00;100467.75;5013860;28;20435;-71
2021/07/05 10:28:59;;;;;;;2.37;2.13;;;;;;;20.55;100.00;100471.06;5015843;28;20849;-71
2021/07/05 10:31:26;;;;;;;4.40;2.80;;;;;;;20.57;100.00;100464.00;5016241;28;20435;-71
2021/07/05 10:33:53;;;;;;;3.20;2.00;;;;;;;20.69;100.00;100470.47;5016119;28;20448;-71
2021/07/05 10:36:22;;;;;;;3.43;2.33;;;;;;;20.73;100.00;100477.59;5016179;28;20437;-71
2021/07/05 10:38:52;;;;;;;3.80;2.10;;;;;;;20.86;100.00;100470.69;5016026;28;20458;-71
2021/07/05 10:41:22;;;;;;;3.50;2.50;;;;;;;20.85;100.00;100468.31;5015967;28;20487;-71
2021/07/05 10:43:52;;;;;;;2.67;2.17;;;;;;;20.95;100.00;100464.91;5015679;28;20840;-71
2021/07/05 10:46:48;;;;;;;3.43;2.43;;;;;;;20.89;98.93;100463.63;5015767;28;20928;-71
2021/07/05 10:49:45;;;;;;;2.93;2.33;;;;;;;20.81;97.68;100462.78;5015234;28;20952;-71
2021/07/05 10:52:16;;;;;;;2.40;1.80;;;;;;;20.97;98.31;100472.78;5022981;28;20504;-71
2021/07/05 10:54:44;;;;;;;3.07;2.30;;;;;;;21.18;99.90;100475.81;5035123;28;20793;-71
2021/07/05 10:57:14;;;;;;;2.30;1.73;;;;;;;21.30;99.68;100485.78;5034525;28;20443;-71
2021/07/05 10:59:43;;;;;;;3.20;1.60;;;;;;;21.54;97.31;100477.03;5041175;28;20447;-72
2021/07/05 11:02:36;;;;;;;4.97;2.40;;;;;;;21.66;96.88;100489.75;5034755;28;20483;-72
2021/07/05 11:05:05;;;;;;;3.30;2.13;;;;;;;21.64;95.68;100483.81;5034764;28;20443;-71
2021/07/05 11:07:45;;;;;;;2.50;2.00;;;;;;;21.86;97.08;100498.59;5034626;28;20485;-71
2021/07/05 11:10:25;;;;;;;1.80;1.53;;;;;;;21.88;95.16;100490.75;5034184;28;21004;-71
2021/07/05 11:13:00;;;;;;;3.37;2.47;;;;;;;21.87;92.26;100478.94;5034618;28;20431;-71
2021/07/05 11:15:50;;;;;;;1.40;1.30;;;;;;;21.75;90.15;100481.97;5034678;28;20443;-72
2021/07/05 11:18:46;;;;;;;1.63;1.30;;;;;;;21.82;92.34;100481.22;5034587;28;20463;-71
2021/07/05 11:21:52;;;;;;;3.10;2.60;;;;;;;21.85;92.34;100483.22;5027379;28;20489;-71
2021/07/05 11:24:18;;;;;;;2.60;1.83;;;;;;;21.98;93.84;100483.75;5034400;28;20434;-71
2021/07/05 11:26:47;;;;;;;2.50;2.00;;;;;;;21.90;92.39;100478.16;5034283;28;20446;-72
2021/07/05 11:29:25;;;;;;;2.57;2.10;;;;;;;21.78;89.49;100481.22;5033847;28;20513;-71